Terminal Aerodrome Forecast
Issued by NWS Wilmington, OH

Home | Current Version | Previous Version | Text Only | Print | Product List | Glossary On
Versions: 1 2 3 4 5 6 7 8 9 10 11 12 13 14 15 16 17 18 19 20 21 22
845
FTUS41 KILN 302101 AAA
TAFCVG
TAF AMD
KCVG 302101Z 3021/3124 20014G22KT P6SM SCT050 SCT100 BKN250
     FM302300 19010KT P6SM SCT040 BKN100
     FM310200 19007KT 5SM -SHRA BR VCTS OVC040CB
      TEMPO 3102/3106 3SM TSRA BR OVC025CB
     FM310600 19005KT 3SM -SHRA BR OVC025
     FM311000 21006KT P6SM OVC020
     FM311200 23006KT P6SM OVC016
     FM312200 27009KT P6SM OVC012=

USA.gov is the U.S. government's official web portal to all federal, state and local government web resources and services.